Ulan Bator, Mongolia
Current Conditions -  °F | °C
As of 10:00 AM on Tuesday 25 Nov 2014 (Local Time) from ZMUB Reporting Station
Scattered Clouds Scattered Clouds  
Wind Chill: -12°   Ceiling: Unl
Heat Index: -12°   Visibility: 5mi
Dew Point: -19°   Wind: 0mph
Humidity: 57%   Direction: NA
Pressure: 29.38"   Gusts: NA
Location:  47.92°N, 106.91°E
Report Text: ZMUB 250200Z 00000MPS 8000NW SCT033 SCT100 M12/M19 Q0995 NOSIG RMK QFE641.2 53 NW MO
Loading
Personal Weather Stations






























Interactive Weather Map New forecast layout! Learn more

10-Day Weather Forecast

Advertisements
Track Severe Weather on mobile